createdAt,value
2023-04-24T00:01:26.891Z,18.64
2023-04-24T00:03:54.182Z,18.63
2023-04-24T00:06:21.511Z,18.67
2023-04-24T00:08:48.542Z,18.67
2023-04-24T00:11:15.264Z,18.64
2023-04-24T00:13:42.369Z,18.62
2023-04-24T00:16:09.152Z,18.64
2023-04-24T00:18:36.268Z,18.60
2023-04-24T00:21:03.900Z,18.60
2023-04-24T00:23:31.349Z,18.61
2023-04-24T00:25:58.076Z,18.59
2023-04-24T00:28:25.103Z,18.63
2023-04-24T00:30:51.883Z,18.63
2023-04-24T00:33:18.903Z,18.63
2023-04-24T00:35:45.711Z,18.60
2023-04-24T00:38:12.722Z,18.60
2023-04-24T00:40:39.603Z,18.58
2023-04-24T00:43:08.323Z,18.57
2023-04-24T00:45:36.137Z,18.58
2023-04-24T00:48:03.325Z,18.53
2023-04-24T00:50:30.266Z,18.56
2023-04-24T00:52:57.483Z,18.55
2023-04-24T00:55:24.314Z,18.52
2023-04-24T00:57:51.586Z,18.50
2023-04-24T01:00:18.421Z,18.48
2023-04-24T01:02:46.292Z,18.47
2023-04-24T01:05:14.285Z,18.46
2023-04-24T01:07:44.905Z,18.48
2023-04-24T01:10:12.537Z,18.46
2023-04-24T01:12:39.843Z,18.39
2023-04-24T01:15:07.658Z,18.37
2023-04-24T01:17:34.824Z,18.42
2023-04-24T01:20:01.783Z,18.39
2023-04-24T01:22:28.957Z,18.36
2023-04-24T01:24:55.735Z,18.38
2023-04-24T01:27:22.827Z,18.39
2023-04-24T01:29:50.394Z,18.38
2023-04-24T01:32:17.561Z,18.36
2023-04-24T01:34:44.361Z,18.36
2023-04-24T01:37:11.673Z,18.39
2023-04-24T01:39:38.642Z,18.35
2023-04-24T01:42:06.387Z,18.31
2023-04-24T01:44:33.152Z,18.24
2023-04-24T01:47:01.695Z,18.31
2023-04-24T01:49:28.554Z,18.30
2023-04-24T01:51:55.760Z,18.30
2023-04-24T01:54:22.503Z,18.23
2023-04-24T01:56:49.599Z,18.24
2023-04-24T01:59:16.540Z,18.25
2023-04-24T02:01:43.570Z,18.23
2023-04-24T02:04:10.474Z,18.25
2023-04-24T02:06:37.600Z,18.21
2023-04-24T02:09:04.494Z,18.23
2023-04-24T02:11:31.655Z,18.22
2023-04-24T02:13:58.703Z,18.21
2023-04-24T02:16:26.018Z,18.15
2023-04-24T02:18:52.926Z,18.19
2023-04-24T02:21:20.058Z,18.16
2023-04-24T02:23:46.805Z,18.13
2023-04-24T02:26:14.020Z,18.11
2023-04-24T02:28:40.889Z,18.11
2023-04-24T02:31:08.078Z,18.06
2023-04-24T02:33:34.884Z,18.06
2023-04-24T02:36:02.938Z,18.02
2023-04-24T02:38:30.361Z,18.07
2023-04-24T02:40:57.467Z,18.10
2023-04-24T02:43:24.306Z,18.13
2023-04-24T02:45:51.439Z,18.05
2023-04-24T02:48:18.334Z,18.04
2023-04-24T02:50:45.903Z,18.04
2023-04-24T02:53:12.697Z,18.03
2023-04-24T02:55:39.730Z,18.03
2023-04-24T02:58:07.056Z,17.98
2023-04-24T03:00:34.289Z,18.02
2023-04-24T03:03:01.295Z,18.01
2023-04-24T03:05:28.661Z,17.95
2023-04-24T03:07:55.508Z,17.98
2023-04-24T03:10:23.785Z,17.94
2023-04-24T03:12:50.732Z,17.93
2023-04-24T03:15:17.822Z,17.94
2023-04-24T03:17:44.644Z,17.93
2023-04-24T03:20:11.807Z,17.86
2023-04-24T03:22:38.561Z,17.87
2023-04-24T03:25:06.247Z,17.85
2023-04-24T03:27:33.074Z,17.83
2023-04-24T03:30:00.198Z,17.88
2023-04-24T03:32:26.940Z,17.85
2023-04-24T03:34:54.347Z,17.77
2023-04-24T03:37:21.130Z,17.72
2023-04-24T03:39:48.212Z,17.67
2023-04-24T03:42:15.003Z,17.64
2023-04-24T03:44:42.052Z,17.60
2023-04-24T03:47:08.830Z,17.58
2023-04-24T03:49:35.909Z,17.59
2023-04-24T03:52:02.682Z,17.55
2023-04-24T03:54:29.755Z,17.57
2023-04-24T03:56:56.551Z,17.56
2023-04-24T03:59:23.602Z,17.56
2023-04-24T04:01:50.500Z,17.56
2023-04-24T04:04:17.965Z,17.57
2023-04-24T04:06:45.243Z,17.57
2023-04-24T04:09:12.285Z,17.61
2023-04-24T04:11:39.149Z,17.66
2023-04-24T04:14:06.389Z,17.67
2023-04-24T04:16:33.321Z,17.66
2023-04-24T04:19:00.426Z,17.62
2023-04-24T04:21:28.136Z,17.61
2023-04-24T04:23:55.269Z,17.66
2023-04-24T04:26:22.244Z,17.68
2023-04-24T04:28:50.051Z,17.69
2023-04-24T04:31:16.918Z,17.69
2023-04-24T04:33:44.045Z,17.67
2023-04-24T04:36:10.958Z,17.61
2023-04-24T04:38:38.162Z,17.65
2023-04-24T04:41:05.417Z,17.62
2023-04-24T04:43:33.649Z,17.64
2023-04-24T04:46:01.788Z,17.61
2023-04-24T04:48:29.792Z,17.61
2023-04-24T04:50:56.631Z,17.59
2023-04-24T04:53:23.721Z,17.67
2023-04-24T04:55:50.555Z,17.66
2023-04-24T04:58:17.710Z,17.60
2023-04-24T05:00:45.188Z,17.60
2023-04-24T05:03:20.781Z,17.63
2023-04-24T05:05:48.334Z,17.61
2023-04-24T05:10:45.275Z,17.57
2023-04-24T05:13:14.054Z,17.50
2023-04-24T05:15:41.042Z,17.49
2023-04-24T05:18:08.268Z,17.42
2023-04-24T05:20:35.065Z,17.40
2023-04-24T05:23:02.131Z,17.44
2023-04-24T05:25:28.886Z,17.42
2023-04-24T05:27:55.939Z,17.45
2023-04-24T05:30:22.665Z,17.46
2023-04-24T05:32:49.708Z,17.46
2023-04-24T05:35:16.532Z,17.45
2023-04-24T05:37:43.587Z,17.50
2023-04-24T05:40:10.667Z,17.56
2023-04-24T05:42:37.734Z,17.65
2023-04-24T05:45:05.436Z,17.67
2023-04-24T05:47:32.525Z,17.72
2023-04-24T05:49:59.278Z,17.72
2023-04-24T05:52:26.755Z,17.76
2023-04-24T05:54:53.477Z,17.82
2023-04-24T05:57:20.731Z,17.84
2023-04-24T05:59:47.482Z,17.90
2023-04-24T06:02:14.605Z,17.99
2023-04-24T06:04:41.537Z,18.03
2023-04-24T06:07:08.786Z,18.10
2023-04-24T06:09:35.604Z,18.20
2023-04-24T06:12:03.527Z,18.22
2023-04-24T06:14:30.459Z,18.31
2023-04-24T06:16:57.749Z,18.37
2023-04-24T06:19:24.745Z,18.44
2023-04-24T06:21:51.956Z,18.46
2023-04-24T06:24:18.714Z,18.52
2023-04-24T06:26:46.114Z,18.57
2023-04-24T06:29:12.929Z,18.64
2023-04-24T06:31:40.090Z,18.68
2023-04-24T06:34:06.910Z,18.71
2023-04-24T06:36:35.636Z,18.70
2023-04-24T06:39:02.579Z,18.71
2023-04-24T06:41:30.153Z,18.74
2023-04-24T06:43:56.951Z,18.82
2023-04-24T06:46:27.068Z,18.83
2023-04-24T06:48:56.718Z,18.87
2023-04-24T06:51:27.674Z,18.93
2023-04-24T06:53:54.800Z,18.95
2023-04-24T06:56:22.012Z,18.99
2023-04-24T06:58:49.018Z,19.05
2023-04-24T07:01:16.120Z,19.10
2023-04-24T07:03:43.206Z,19.17
2023-04-24T07:06:11.206Z,19.17
2023-04-24T07:08:38.360Z,19.24
2023-04-24T07:11:05.606Z,19.31
2023-04-24T07:13:32.446Z,19.34
2023-04-24T07:15:59.614Z,19.38
2023-04-24T07:18:26.421Z,19.49
2023-04-24T07:20:53.531Z,19.53
2023-04-24T07:23:21.633Z,19.61
2023-04-24T07:25:48.769Z,19.65
2023-04-24T07:28:15.699Z,19.70
2023-04-24T07:30:42.805Z,19.74
2023-04-24T07:33:09.633Z,19.80
2023-04-24T07:35:36.766Z,19.89
2023-04-24T07:38:03.548Z,19.97
2023-04-24T07:40:30.984Z,20.04
2023-04-24T07:42:57.878Z,20.13
2023-04-24T07:45:27.032Z,20.14
2023-04-24T07:47:53.850Z,20.25
2023-04-24T07:50:21.223Z,20.29
2023-04-24T07:52:48.638Z,20.38
2023-04-24T07:55:15.853Z,20.44
2023-04-24T07:57:42.804Z,20.45
2023-04-24T08:00:10.471Z,20.48
2023-04-24T08:02:37.580Z,20.55
2023-04-24T08:05:05.209Z,20.64
2023-04-24T08:07:32.484Z,20.81
2023-04-24T08:10:00.424Z,20.87
2023-04-24T08:12:27.322Z,20.94
2023-04-24T08:14:54.425Z,21.04
2023-04-24T08:17:21.270Z,21.10
2023-04-24T08:19:52.218Z,21.18
2023-04-24T08:22:19.089Z,21.28
2023-04-24T08:24:46.297Z,21.33
2023-04-24T08:27:13.150Z,21.37
2023-04-24T08:29:40.449Z,21.55
2023-04-24T08:32:07.865Z,21.62
2023-04-24T08:34:35.714Z,21.71
2023-04-24T08:37:02.494Z,21.75
2023-04-24T08:39:29.535Z,21.82
2023-04-24T08:41:56.446Z,21.93
2023-04-24T08:44:23.633Z,22.01
2023-04-24T08:46:50.650Z,22.05
2023-04-24T08:49:18.380Z,22.16
2023-04-24T08:51:45.846Z,22.24
2023-04-24T08:54:13.664Z,22.32
2023-04-24T08:56:40.746Z,22.33
2023-04-24T08:59:07.995Z,22.50
2023-04-24T09:01:35.040Z,22.53
2023-04-24T09:04:05.572Z,22.59
2023-04-24T09:06:33.208Z,22.69
2023-04-24T09:09:04.409Z,22.70
2023-04-24T09:11:31.642Z,22.85
2023-04-24T09:13:58.830Z,22.77
2023-04-24T09:16:26.577Z,22.95
2023-04-24T09:18:53.754Z,22.93
2023-04-24T09:21:22.519Z,22.98
2023-04-24T09:24:00.354Z,23.06
2023-04-24T09:26:27.950Z,23.21
2023-04-24T09:28:55.415Z,23.25
2023-04-24T09:31:23.742Z,23.31
2023-04-24T09:34:01.817Z,23.34
2023-04-24T09:36:29.951Z,23.38
2023-04-24T09:38:59.310Z,23.52
2023-04-24T09:41:26.058Z,23.47
2023-04-24T09:43:54.951Z,23.60
2023-04-24T09:46:23.346Z,23.71
2023-04-24T09:48:50.483Z,23.71
2023-04-24T09:51:17.739Z,23.70
2023-04-24T09:53:48.234Z,23.63
2023-04-24T09:56:15.100Z,23.61
2023-04-24T09:58:42.247Z,23.58
2023-04-24T10:01:09.242Z,23.55
2023-04-24T10:03:36.610Z,23.61
2023-04-24T10:06:09.507Z,23.66
2023-04-24T10:08:37.201Z,23.72
2023-04-24T10:11:04.100Z,23.73
2023-04-24T10:13:31.255Z,23.74
2023-04-24T10:15:58.083Z,23.80
2023-04-24T10:18:25.351Z,23.76
2023-04-24T10:20:52.224Z,23.71
2023-04-24T10:23:20.411Z,23.75
2023-04-24T10:25:47.239Z,23.69
2023-04-24T10:28:14.332Z,23.57
2023-04-24T10:30:41.108Z,23.68
2023-04-24T10:33:09.341Z,23.68
2023-04-24T10:35:38.961Z,23.69
2023-04-24T10:38:13.182Z,23.71
2023-04-24T10:40:40.412Z,23.75
2023-04-24T10:43:09.834Z,23.78
2023-04-24T10:45:36.713Z,23.78
2023-04-24T10:48:06.222Z,23.75
2023-04-24T10:50:53.691Z,23.74
2023-04-24T10:53:24.140Z,23.70
2023-04-24T10:55:52.353Z,23.71
2023-04-24T10:58:23.229Z,23.67
2023-04-24T11:01:00.571Z,23.65
2023-04-24T11:03:29.284Z,23.59
2023-04-24T11:05:59.304Z,23.55
2023-04-24T11:08:40.042Z,23.53
2023-04-24T11:11:11.302Z,23.51
2023-04-24T11:13:56.980Z,23.55
2023-04-24T11:16:34.841Z,23.50
2023-04-24T11:19:08.995Z,23.44
2023-04-24T11:21:58.471Z,23.40
2023-04-24T11:24:40.803Z,23.38
2023-04-24T11:27:12.785Z,23.33
2023-04-24T11:29:40.901Z,23.33
2023-04-24T11:32:26.605Z,23.30
2023-04-24T11:35:28.822Z,23.28
2023-04-24T11:40:29.082Z,23.05
2023-04-24T11:43:00.440Z,23.00
2023-04-24T11:45:29.347Z,23.01
2023-04-24T11:47:56.170Z,22.98
2023-04-24T11:50:24.380Z,22.97
2023-04-24T11:52:51.409Z,22.84
2023-04-24T11:55:18.734Z,22.83
2023-04-24T11:57:58.724Z,22.82
2023-04-24T12:00:32.869Z,22.70
2023-04-24T12:03:08.736Z,22.71
2023-04-24T12:05:36.255Z,22.63
2023-04-24T12:08:03.215Z,22.50
2023-04-24T12:10:31.154Z,22.49
2023-04-24T12:12:58.442Z,22.53
2023-04-24T12:15:25.781Z,22.56
2023-04-24T12:17:53.116Z,22.43
2023-04-24T12:20:33.756Z,22.36
2023-04-24T12:23:01.492Z,22.39
2023-04-24T12:25:29.930Z,22.44
2023-04-24T12:28:13.394Z,22.34
2023-04-24T12:30:42.395Z,22.31
2023-04-24T12:33:09.265Z,22.23
2023-04-24T12:35:36.974Z,22.28
2023-04-24T12:38:09.046Z,22.29
2023-04-24T12:40:36.292Z,22.30
2023-04-24T12:43:03.408Z,22.17
2023-04-24T12:45:30.506Z,22.18
2023-04-24T12:47:57.314Z,22.13
2023-04-24T12:50:24.511Z,22.18
2023-04-24T12:52:51.291Z,22.17
2023-04-24T12:55:18.389Z,22.07
2023-04-24T12:57:45.138Z,22.07
2023-04-24T13:00:12.656Z,22.03
2023-04-24T13:02:39.611Z,21.99
2023-04-24T13:05:07.176Z,21.99
2023-04-24T13:07:33.992Z,22.01
2023-04-24T13:10:01.162Z,21.98
2023-04-24T13:12:28.026Z,21.89
2023-04-24T13:14:55.313Z,21.88
2023-04-24T13:17:22.754Z,21.88
2023-04-24T13:19:51.146Z,21.85
2023-04-24T13:22:19.765Z,21.84
2023-04-24T13:24:49.530Z,21.90
2023-04-24T13:27:16.891Z,21.84
2023-04-24T13:29:44.018Z,21.79
2023-04-24T13:32:10.915Z,21.78
2023-04-24T13:34:38.266Z,21.72
2023-04-24T13:37:05.337Z,21.72
2023-04-24T13:39:32.685Z,21.64
2023-04-24T13:41:59.512Z,21.66
2023-04-24T13:44:26.599Z,21.70
2023-04-24T13:46:55.160Z,21.59
2023-04-24T13:49:22.433Z,21.49
2023-04-24T13:51:49.220Z,21.48
2023-04-24T13:54:16.265Z,21.51
2023-04-24T13:56:43.049Z,21.44
2023-04-24T13:59:10.219Z,21.47
2023-04-24T14:01:37.154Z,21.51
2023-04-24T14:04:04.562Z,21.49
2023-04-24T14:06:32.270Z,21.45
2023-04-24T14:08:59.391Z,21.37
2023-04-24T14:11:26.226Z,21.37
2023-04-24T14:13:53.376Z,21.33
2023-04-24T14:16:20.206Z,21.27
2023-04-24T14:18:46.993Z,21.27
2023-04-24T14:21:14.099Z,21.28
2023-04-24T14:23:40.895Z,21.24
2023-04-24T14:26:08.629Z,21.21
2023-04-24T14:28:35.473Z,21.12
2023-04-24T14:31:02.549Z,21.12
2023-04-24T14:33:29.607Z,21.09
2023-04-24T14:35:56.754Z,21.01
2023-04-24T14:38:23.656Z,20.93
2023-04-24T14:43:21.092Z,20.87
2023-04-24T14:45:48.161Z,20.85
2023-04-24T14:48:15.518Z,20.86
2023-04-24T14:50:42.618Z,20.77
2023-04-24T14:53:09.407Z,20.69
2023-04-24T14:55:37.304Z,20.71
2023-04-24T14:58:04.919Z,20.71
2023-04-24T15:00:32.362Z,20.66
2023-04-24T15:02:59.472Z,20.62
2023-04-24T15:05:26.786Z,20.68
2023-04-24T15:07:53.825Z,20.66
2023-04-24T15:10:23.875Z,20.68
2023-04-24T15:12:50.874Z,20.64
2023-04-24T15:15:18.020Z,20.57
2023-04-24T15:17:44.786Z,20.50
2023-04-24T15:20:12.219Z,20.47
2023-04-24T15:22:39.097Z,20.51
2023-04-24T15:25:06.894Z,20.50
2023-04-24T15:27:41.864Z,20.52
2023-04-24T15:30:09.458Z,20.49
2023-04-24T15:32:36.313Z,20.44
2023-04-24T15:35:08.451Z,20.44
2023-04-24T15:37:37.143Z,20.39
2023-04-24T15:40:06.632Z,20.36
2023-04-24T15:42:33.717Z,20.38
2023-04-24T15:45:00.908Z,20.34
2023-04-24T15:47:27.805Z,20.32
2023-04-24T15:49:54.967Z,20.32
2023-04-24T15:52:22.021Z,20.29
2023-04-24T15:54:49.232Z,20.26
2023-04-24T15:57:16.103Z,20.24
2023-04-24T15:59:43.373Z,20.19
2023-04-24T16:02:10.499Z,20.18
2023-04-24T16:04:37.836Z,20.14
2023-04-24T16:07:04.847Z,20.14
2023-04-24T16:09:32.002Z,20.11
2023-04-24T16:11:58.775Z,20.07
2023-04-24T16:14:26.201Z,20.06
2023-04-24T16:16:53.072Z,20.04
2023-04-24T16:19:20.379Z,20.01
2023-04-24T16:21:47.182Z,19.99
2023-04-24T16:24:14.247Z,19.98
2023-04-24T16:26:41.190Z,19.93
2023-04-24T16:29:08.258Z,19.92
2023-04-24T16:31:35.045Z,19.88
2023-04-24T16:34:02.184Z,19.86
2023-04-24T16:36:29.056Z,19.80
2023-04-24T16:38:56.269Z,19.79
2023-04-24T16:41:23.043Z,19.73
2023-04-24T16:43:50.820Z,19.70
2023-04-24T16:46:17.675Z,19.65
2023-04-24T16:48:44.786Z,19.68
2023-04-24T16:51:11.552Z,19.68
2023-04-24T16:53:38.678Z,19.63
2023-04-24T16:56:05.697Z,19.65
2023-04-24T16:58:32.796Z,19.58
2023-04-24T17:00:59.678Z,19.56
2023-04-24T17:03:26.959Z,19.51
2023-04-24T17:05:53.854Z,19.53
2023-04-24T17:08:22.622Z,19.49
2023-04-24T17:10:49.511Z,19.52
2023-04-24T17:13:16.634Z,19.46
2023-04-24T17:15:43.466Z,19.45
2023-04-24T17:18:11.183Z,19.43
2023-04-24T17:20:37.946Z,19.42
2023-04-24T17:23:05.016Z,19.38
2023-04-24T17:25:31.800Z,19.38
2023-04-24T17:27:58.890Z,19.31
2023-04-24T17:30:25.723Z,19.30
2023-04-24T17:32:52.868Z,19.30
2023-04-24T17:35:22.136Z,19.26
2023-04-24T17:37:49.808Z,19.22
2023-04-24T17:40:17.623Z,19.18
2023-04-24T17:42:44.774Z,19.18
2023-04-24T17:45:12.152Z,19.16
2023-04-24T17:47:39.268Z,19.12
2023-04-24T17:50:06.549Z,19.09
2023-04-24T17:52:34.386Z,19.07
2023-04-24T17:55:01.461Z,19.06
2023-04-24T17:57:28.982Z,19.03
2023-04-24T17:59:55.778Z,18.96
2023-04-24T18:02:22.932Z,18.98
2023-04-24T18:04:50.730Z,18.96
2023-04-24T18:07:18.821Z,18.90
2023-04-24T18:09:45.680Z,18.91
2023-04-24T18:12:12.850Z,18.92
2023-04-24T18:14:39.654Z,18.84
2023-04-24T18:17:07.689Z,18.86
2023-04-24T18:19:34.501Z,18.82
2023-04-24T18:22:01.617Z,18.83
2023-04-24T18:24:28.398Z,18.76
2023-04-24T18:26:55.512Z,18.73
2023-04-24T18:29:22.323Z,18.72
2023-04-24T18:31:49.965Z,18.68
2023-04-24T18:34:16.869Z,18.68
2023-04-24T18:36:43.986Z,18.64
2023-04-24T18:39:10.872Z,18.68
2023-04-24T18:41:37.953Z,18.70
2023-04-24T18:44:04.722Z,18.65
2023-04-24T18:46:34.917Z,18.61
2023-04-24T18:49:01.864Z,18.59
2023-04-24T18:51:28.916Z,18.58
2023-04-24T18:53:55.855Z,18.57
2023-04-24T18:56:23.083Z,18.57
2023-04-24T18:58:50.331Z,18.42
2023-04-24T19:01:17.843Z,18.42
2023-04-24T19:03:44.838Z,18.41
2023-04-24T19:06:12.039Z,18.49
2023-04-24T19:08:38.842Z,18.50
2023-04-24T19:11:06.057Z,18.49
2023-04-24T19:13:32.879Z,18.47
2023-04-24T19:16:00.027Z,18.45
2023-04-24T19:18:27.188Z,18.40
2023-04-24T19:20:54.282Z,18.33
2023-04-24T19:23:21.317Z,18.33
2023-04-24T19:25:48.589Z,18.30
2023-04-24T19:28:15.382Z,18.34
2023-04-24T19:30:42.651Z,18.30
2023-04-24T19:33:09.510Z,18.29
2023-04-24T19:35:36.679Z,18.24
2023-04-24T19:38:03.476Z,18.18
2023-04-24T19:40:30.739Z,18.22
2023-04-24T19:42:57.631Z,18.12
2023-04-24T19:45:24.723Z,18.11
2023-04-24T19:47:51.554Z,18.10
2023-04-24T19:50:18.652Z,18.10
2023-04-24T19:52:45.462Z,18.11
2023-04-24T19:55:12.724Z,18.09
2023-04-24T19:57:39.531Z,18.09
2023-04-24T20:00:08.144Z,18.07
2023-04-24T20:02:35.352Z,18.00
2023-04-24T20:05:02.645Z,17.89
2023-04-24T20:07:29.554Z,17.82
2023-04-24T20:09:56.670Z,17.76
2023-04-24T20:12:23.487Z,17.80
2023-04-24T20:14:50.597Z,17.77
2023-04-24T20:17:17.462Z,17.78
2023-04-24T20:19:44.760Z,17.79
2023-04-24T20:22:13.198Z,17.72
2023-04-24T20:24:40.608Z,17.69
2023-04-24T20:27:07.385Z,17.67
2023-04-24T20:29:35.005Z,17.64
2023-04-24T20:32:01.808Z,17.61
2023-04-24T20:34:28.871Z,17.69
2023-04-24T20:36:57.262Z,17.62
2023-04-24T20:39:24.350Z,17.62
2023-04-24T20:41:51.299Z,17.63
2023-04-24T20:44:18.434Z,17.53
2023-04-24T20:46:45.416Z,17.54
2023-04-24T20:49:12.538Z,17.55
2023-04-24T20:51:39.350Z,17.53
2023-04-24T20:54:06.615Z,17.48
2023-04-24T20:56:33.436Z,17.42
2023-04-24T20:59:00.807Z,17.43
2023-04-24T21:01:27.736Z,17.40
2023-04-24T21:03:54.854Z,17.34
2023-04-24T21:06:21.964Z,17.35
2023-04-24T21:08:49.224Z,17.39
2023-04-24T21:11:15.981Z,17.38
2023-04-24T21:13:43.080Z,17.29
2023-04-24T21:16:09.877Z,17.31
2023-04-24T21:18:41.243Z,17.27
2023-04-24T21:21:11.802Z,17.34
2023-04-24T21:23:39.118Z,17.26
2023-04-24T21:26:06.177Z,17.26
2023-04-24T21:28:33.279Z,17.30
2023-04-24T21:31:00.239Z,17.24
2023-04-24T21:33:27.358Z,17.20
2023-04-24T21:35:54.185Z,17.21
2023-04-24T21:38:24.450Z,17.18
2023-04-24T21:40:51.768Z,17.18
2023-04-24T21:43:19.709Z,17.21
2023-04-24T21:45:48.528Z,17.21
2023-04-24T21:48:15.619Z,17.17
2023-04-24T21:50:42.405Z,17.15
2023-04-24T21:53:09.530Z,17.12
2023-04-24T21:55:36.371Z,17.12
2023-04-24T21:58:03.650Z,17.09
2023-04-24T22:00:30.403Z,17.11
2023-04-24T22:03:54.481Z,17.03
2023-04-24T22:06:21.324Z,16.97
2023-04-24T22:08:48.362Z,16.99
2023-04-24T22:11:25.639Z,16.94
2023-04-24T22:13:54.428Z,16.95
2023-04-24T22:16:22.862Z,16.92
2023-04-24T22:18:50.067Z,16.94
2023-04-24T22:21:16.870Z,16.95
2023-04-24T22:23:43.882Z,16.97
2023-04-24T22:26:10.601Z,16.90
2023-04-24T22:28:37.700Z,16.91
2023-04-24T22:31:04.480Z,16.88
2023-04-24T22:33:31.587Z,16.85
2023-04-24T22:35:58.313Z,16.86
2023-04-24T22:38:25.350Z,16.87
2023-04-24T22:40:52.030Z,16.88
2023-04-24T22:45:58.689Z,16.77
2023-04-24T22:48:25.985Z,16.78
2023-04-24T22:50:52.725Z,16.75
2023-04-24T22:53:19.855Z,16.77
2023-04-24T22:55:46.585Z,16.72
2023-04-24T22:58:13.572Z,16.73
2023-04-24T23:00:40.265Z,16.66
2023-04-24T23:03:07.419Z,16.65
2023-04-24T23:05:34.221Z,16.62
2023-04-24T23:08:01.281Z,16.65
2023-04-24T23:10:28.521Z,16.61
2023-04-24T23:12:55.544Z,16.60
2023-04-24T23:15:22.298Z,16.61
2023-04-24T23:17:49.485Z,16.59
2023-04-24T23:20:16.612Z,16.54
2023-04-24T23:22:43.642Z,16.51
2023-04-24T23:25:10.984Z,16.55
2023-04-24T23:27:37.956Z,16.55
2023-04-24T23:30:06.721Z,16.49
2023-04-24T23:32:33.905Z,16.53
2023-04-24T23:35:00.742Z,16.56
2023-04-24T23:37:27.875Z,16.58
2023-04-24T23:39:54.568Z,16.53
2023-04-24T23:42:21.604Z,16.55
2023-04-24T23:44:48.299Z,16.47
2023-04-24T23:47:15.342Z,16.46
2023-04-24T23:49:41.993Z,16.42
2023-04-24T23:52:09.015Z,16.49
2023-04-24T23:54:35.807Z,16.57
2023-04-24T23:57:03.321Z,16.51
2023-04-24T23:59:30.662Z,16.56
